sensor_id;sensor_type;location;lat;lon;timestamp;temperature;humidity
1956;DHT22;978;48.314;11.562;2023-04-15T00:01:02;20.50;65.40
1956;DHT22;978;48.314;11.562;2023-04-15T00:03:30;20.50;65.40
1956;DHT22;978;48.314;11.562;2023-04-15T00:05:59;20.50;65.40
1956;DHT22;978;48.314;11.562;2023-04-15T00:08:26;20.50;65.40
1956;DHT22;978;48.314;11.562;2023-04-15T00:10:53;20.50;65.50
1956;DHT22;978;48.314;11.562;2023-04-15T00:13:23;20.50;65.50
1956;DHT22;978;48.314;11.562;2023-04-15T00:15:52;20.50;65.50
1956;DHT22;978;48.314;11.562;2023-04-15T00:18:18;20.50;65.50
1956;DHT22;978;48.314;11.562;2023-04-15T00:20:48;20.50;65.50
1956;DHT22;978;48.314;11.562;2023-04-15T00:23:17;20.50;65.60
1956;DHT22;978;48.314;11.562;2023-04-15T00:25:45;20.50;65.60
1956;DHT22;978;48.314;11.562;2023-04-15T00:28:11;20.50;65.60
1956;DHT22;978;48.314;11.562;2023-04-15T00:30:39;20.50;65.60
1956;DHT22;978;48.314;11.562;2023-04-15T00:33:10;20.50;65.60
1956;DHT22;978;48.314;11.562;2023-04-15T00:35:38;20.50;65.70
1956;DHT22;978;48.314;11.562;2023-04-15T00:38:05;20.50;65.70
1956;DHT22;978;48.314;11.562;2023-04-15T00:40:34;20.50;65.70
1956;DHT22;978;48.314;11.562;2023-04-15T00:43:01;20.50;65.70
1956;DHT22;978;48.314;11.562;2023-04-15T00:45:29;20.50;65.70
1956;DHT22;978;48.314;11.562;2023-04-15T00:47:59;20.50;65.70
1956;DHT22;978;48.314;11.562;2023-04-15T00:50:27;20.60;65.80
1956;DHT22;978;48.314;11.562;2023-04-15T00:52:54;20.50;65.80
1956;DHT22;978;48.314;11.562;2023-04-15T00:55:20;20.50;65.80
1956;DHT22;978;48.314;11.562;2023-04-15T00:57:47;20.50;65.80
1956;DHT22;978;48.314;11.562;2023-04-15T01:00:14;20.50;65.80
1956;DHT22;978;48.314;11.562;2023-04-15T01:02:42;20.50;65.80
1956;DHT22;978;48.314;11.562;2023-04-15T01:05:10;20.60;65.90
1956;DHT22;978;48.314;11.562;2023-04-15T01:07:38;20.50;65.80
1956;DHT22;978;48.314;11.562;2023-04-15T01:10:06;20.50;65.90
1956;DHT22;978;48.314;11.562;2023-04-15T01:12:33;20.50;65.80
1956;DHT22;978;48.314;11.562;2023-04-15T01:15:04;20.50;65.90
1956;DHT22;978;48.314;11.562;2023-04-15T01:17:32;20.50;66.50
1956;DHT22;978;48.314;11.562;2023-04-15T01:19:59;20.50;65.80
1956;DHT22;978;48.314;11.562;2023-04-15T01:22:26;20.50;65.90
1956;DHT22;978;48.314;11.562;2023-04-15T01:25:05;20.50;65.90
1956;DHT22;978;48.314;11.562;2023-04-15T01:27:35;20.50;65.90
1956;DHT22;978;48.314;11.562;2023-04-15T01:30:06;20.50;65.90
1956;DHT22;978;48.314;11.562;2023-04-15T01:32:35;20.50;65.90
1956;DHT22;978;48.314;11.562;2023-04-15T01:35:02;20.50;65.90
1956;DHT22;978;48.314;11.562;2023-04-15T01:37:30;20.50;65.90
1956;DHT22;978;48.314;11.562;2023-04-15T01:39:57;20.60;65.90
1956;DHT22;978;48.314;11.562;2023-04-15T01:42:25;20.50;65.90
1956;DHT22;978;48.314;11.562;2023-04-15T01:44:54;20.50;65.90
1956;DHT22;978;48.314;11.562;2023-04-15T01:47:21;20.50;65.90
1956;DHT22;978;48.314;11.562;2023-04-15T01:49:48;20.60;65.90
1956;DHT22;978;48.314;11.562;2023-04-15T01:52:14;20.50;65.90
1956;DHT22;978;48.314;11.562;2023-04-15T01:54:41;20.50;65.90
1956;DHT22;978;48.314;11.562;2023-04-15T01:57:09;20.50;65.90
1956;DHT22;978;48.314;11.562;2023-04-15T01:59:37;20.50;65.90
1956;DHT22;978;48.314;11.562;2023-04-15T02:02:10;20.50;65.90
1956;DHT22;978;48.314;11.562;2023-04-15T02:04:38;20.50;65.90
1956;DHT22;978;48.314;11.562;2023-04-15T02:07:09;20.50;65.90
1956;DHT22;978;48.314;11.562;2023-04-15T02:09:36;20.50;66.20
1956;DHT22;978;48.314;11.562;2023-04-15T02:12:05;20.50;65.90
1956;DHT22;978;48.314;11.562;2023-04-15T02:14:31;20.50;65.90
1956;DHT22;978;48.314;11.562;2023-04-15T02:16:58;20.50;65.90
1956;DHT22;978;48.314;11.562;2023-04-15T02:19:32;20.50;66.00
1956;DHT22;978;48.314;11.562;2023-04-15T02:21:59;20.50;66.00
1956;DHT22;978;48.314;11.562;2023-04-15T02:24:29;20.50;66.00
1956;DHT22;978;48.314;11.562;2023-04-15T02:26:56;20.50;66.00
1956;DHT22;978;48.314;11.562;2023-04-15T02:29:22;20.50;66.00
1956;DHT22;978;48.314;11.562;2023-04-15T02:31:50;20.50;66.00
1956;DHT22;978;48.314;11.562;2023-04-15T02:34:18;20.50;66.00
1956;DHT22;978;48.314;11.562;2023-04-15T02:36:48;20.50;66.00
1956;DHT22;978;48.314;11.562;2023-04-15T02:39:20;20.50;66.00
1956;DHT22;978;48.314;11.562;2023-04-15T02:41:47;20.50;66.00
1956;DHT22;978;48.314;11.562;2023-04-15T02:44:17;20.50;66.00
1956;DHT22;978;48.314;11.562;2023-04-15T02:46:45;20.50;66.10
1956;DHT22;978;48.314;11.562;2023-04-15T02:49:16;20.50;66.00
1956;DHT22;978;48.314;11.562;2023-04-15T02:51:43;20.50;66.00
1956;DHT22;978;48.314;11.562;2023-04-15T02:54:16;20.50;66.00
1956;DHT22;978;48.314;11.562;2023-04-15T02:56:43;20.50;66.00
1956;DHT22;978;48.314;11.562;2023-04-15T02:59:10;20.50;66.00
1956;DHT22;978;48.314;11.562;2023-04-15T03:01:37;20.50;66.10
1956;DHT22;978;48.314;11.562;2023-04-15T03:04:05;20.50;66.10
1956;DHT22;978;48.314;11.562;2023-04-15T03:06:33;20.50;66.10
1956;DHT22;978;48.314;11.562;2023-04-15T03:09:01;20.50;66.10
1956;DHT22;978;48.314;11.562;2023-04-15T03:11:35;20.50;66.10
1956;DHT22;978;48.314;11.562;2023-04-15T03:14:06;20.50;66.10
1956;DHT22;978;48.314;11.562;2023-04-15T03:16:33;20.50;66.10
1956;DHT22;978;48.314;11.562;2023-04-15T03:19:02;20.50;66.10
1956;DHT22;978;48.314;11.562;2023-04-15T03:21:29;20.50;66.10
1956;DHT22;978;48.314;11.562;2023-04-15T03:23:56;20.50;66.10
1956;DHT22;978;48.314;11.562;2023-04-15T03:26:25;20.50;66.10
1956;DHT22;978;48.314;11.562;2023-04-15T03:28:53;20.50;66.10
1956;DHT22;978;48.314;11.562;2023-04-15T03:31:20;20.50;66.10
1956;DHT22;978;48.314;11.562;2023-04-15T03:33:47;20.50;66.10
1956;DHT22;978;48.314;11.562;2023-04-15T03:36:13;20.50;66.20
1956;DHT22;978;48.314;11.562;2023-04-15T03:38:41;20.50;66.10
1956;DHT22;978;48.314;11.562;2023-04-15T03:41:08;20.50;66.10
1956;DHT22;978;48.314;11.562;2023-04-15T03:43:35;20.50;66.10
1956;DHT22;978;48.314;11.562;2023-04-15T03:46:05;20.50;66.10
1956;DHT22;978;48.314;11.562;2023-04-15T03:48:32;20.50;66.10
1956;DHT22;978;48.314;11.562;2023-04-15T03:51:00;20.50;66.10
1956;DHT22;978;48.314;11.562;2023-04-15T03:53:28;20.50;66.20
1956;DHT22;978;48.314;11.562;2023-04-15T03:55:55;20.60;66.20
1956;DHT22;978;48.314;11.562;2023-04-15T03:58:22;20.50;66.20
1956;DHT22;978;48.314;11.562;2023-04-15T04:00:48;20.50;66.20
1956;DHT22;978;48.314;11.562;2023-04-15T04:03:17;20.50;66.20
1956;DHT22;978;48.314;11.562;2023-04-15T04:05:44;20.50;66.20
1956;DHT22;978;48.314;11.562;2023-04-15T04:08:13;20.50;66.20
1956;DHT22;978;48.314;11.562;2023-04-15T04:10:45;20.50;66.20
1956;DHT22;978;48.314;11.562;2023-04-15T04:13:12;20.50;66.20
1956;DHT22;978;48.314;11.562;2023-04-15T04:15:38;20.50;66.20
1956;DHT22;978;48.314;11.562;2023-04-15T04:18:05;20.50;66.20
1956;DHT22;978;48.314;11.562;2023-04-15T04:20:35;20.50;66.20
1956;DHT22;978;48.314;11.562;2023-04-15T04:23:02;20.50;66.20
1956;DHT22;978;48.314;11.562;2023-04-15T04:25:28;20.50;66.20
1956;DHT22;978;48.314;11.562;2023-04-15T04:27:55;20.50;66.20
1956;DHT22;978;48.314;11.562;2023-04-15T04:30:27;20.50;66.20
1956;DHT22;978;48.314;11.562;2023-04-15T04:32:55;20.50;66.20
1956;DHT22;978;48.314;11.562;2023-04-15T04:35:25;20.50;66.80
1956;DHT22;978;48.314;11.562;2023-04-15T04:37:53;20.50;66.20
1956;DHT22;978;48.314;11.562;2023-04-15T04:40:21;20.60;66.30
1956;DHT22;978;48.314;11.562;2023-04-15T04:42:47;20.50;66.20
1956;DHT22;978;48.314;11.562;2023-04-15T04:45:16;20.50;66.20
1956;DHT22;978;48.314;11.562;2023-04-15T04:47:43;20.50;66.30
1956;DHT22;978;48.314;11.562;2023-04-15T04:50:12;20.50;66.20
1956;DHT22;978;48.314;11.562;2023-04-15T04:52:40;20.50;66.30
1956;DHT22;978;48.314;11.562;2023-04-15T04:55:08;20.50;66.30
1956;DHT22;978;48.314;11.562;2023-04-15T04:57:37;20.50;66.20
1956;DHT22;978;48.314;11.562;2023-04-15T05:00:09;20.50;66.30
1956;DHT22;978;48.314;11.562;2023-04-15T05:02:37;20.50;66.20
1956;DHT22;978;48.314;11.562;2023-04-15T05:05:05;20.50;66.20
1956;DHT22;978;48.314;11.562;2023-04-15T05:07:33;20.50;66.30
1956;DHT22;978;48.314;11.562;2023-04-15T05:10:02;20.50;66.30
1956;DHT22;978;48.314;11.562;2023-04-15T05:12:30;20.50;66.30
1956;DHT22;978;48.314;11.562;2023-04-15T05:14:57;20.50;66.30
1956;DHT22;978;48.314;11.562;2023-04-15T05:17:24;20.50;66.30
1956;DHT22;978;48.314;11.562;2023-04-15T05:19:51;20.50;66.30
1956;DHT22;978;48.314;11.562;2023-04-15T05:22:19;20.50;66.30
1956;DHT22;978;48.314;11.562;2023-04-15T05:24:48;20.50;66.30
1956;DHT22;978;48.314;11.562;2023-04-15T05:27:16;20.50;66.40
1956;DHT22;978;48.314;11.562;2023-04-15T05:29:46;20.50;66.40
1956;DHT22;978;48.314;11.562;2023-04-15T05:32:12;20.50;66.40
1956;DHT22;978;48.314;11.562;2023-04-15T05:34:39;20.50;66.40
1956;DHT22;978;48.314;11.562;2023-04-15T05:37:06;20.50;66.40
1956;DHT22;978;48.314;11.562;2023-04-15T05:39:34;20.50;66.40
1956;DHT22;978;48.314;11.562;2023-04-15T05:42:01;20.50;66.40
1956;DHT22;978;48.314;11.562;2023-04-15T05:44:28;20.50;66.40
1956;DHT22;978;48.314;11.562;2023-04-15T05:46:57;20.50;66.50
1956;DHT22;978;48.314;11.562;2023-04-15T05:49:25;20.50;66.40
1956;DHT22;978;48.314;11.562;2023-04-15T05:51:54;20.50;66.40
1956;DHT22;978;48.314;11.562;2023-04-15T05:54:20;20.50;66.40
1956;DHT22;978;48.314;11.562;2023-04-15T05:56:47;20.50;66.40
1956;DHT22;978;48.314;11.562;2023-04-15T05:59:15;20.50;66.40
1956;DHT22;978;48.314;11.562;2023-04-15T06:01:46;20.50;66.30
1956;DHT22;978;48.314;11.562;2023-04-15T06:04:16;20.50;66.30
1956;DHT22;978;48.314;11.562;2023-04-15T06:06:45;20.50;66.30
1956;DHT22;978;48.314;11.562;2023-04-15T06:09:12;20.50;66.40
1956;DHT22;978;48.314;11.562;2023-04-15T06:11:39;20.50;66.30
1956;DHT22;978;48.314;11.562;2023-04-15T06:14:06;20.50;66.20
1956;DHT22;978;48.314;11.562;2023-04-15T06:16:33;20.50;66.20
1956;DHT22;978;48.314;11.562;2023-04-15T06:19:01;20.50;66.20
1956;DHT22;978;48.314;11.562;2023-04-15T06:21:30;20.50;66.10
1956;DHT22;978;48.314;11.562;2023-04-15T06:23:58;20.50;66.10
1956;DHT22;978;48.314;11.562;2023-04-15T06:26:25;20.50;66.00
1956;DHT22;978;48.314;11.562;2023-04-15T06:28:52;20.50;65.80
1956;DHT22;978;48.314;11.562;2023-04-15T06:31:19;20.50;65.80
1956;DHT22;978;48.314;11.562;2023-04-15T06:33:47;20.50;65.60
1956;DHT22;978;48.314;11.562;2023-04-15T06:36:17;20.50;65.50
1956;DHT22;978;48.314;11.562;2023-04-15T06:38:50;20.50;65.40
1956;DHT22;978;48.314;11.562;2023-04-15T06:41:19;20.50;65.40
1956;DHT22;978;48.314;11.562;2023-04-15T06:43:47;20.50;65.30
1956;DHT22;978;48.314;11.562;2023-04-15T06:46:18;20.50;65.20
1956;DHT22;978;48.314;11.562;2023-04-15T06:48:44;20.50;65.10
1956;DHT22;978;48.314;11.562;2023-04-15T06:51:12;20.50;65.10
1956;DHT22;978;48.314;11.562;2023-04-15T06:53:38;20.50;65.00
1956;DHT22;978;48.314;11.562;2023-04-15T06:56:09;20.50;64.90
1956;DHT22;978;48.314;11.562;2023-04-15T06:58:36;20.50;64.90
1956;DHT22;978;48.314;11.562;2023-04-15T07:01:03;20.60;64.90
1956;DHT22;978;48.314;11.562;2023-04-15T07:03:30;20.50;64.80
1956;DHT22;978;48.314;11.562;2023-04-15T07:05:57;20.50;64.70
1956;DHT22;978;48.314;11.562;2023-04-15T07:08:25;20.50;64.70
1956;DHT22;978;48.314;11.562;2023-04-15T07:10:53;20.50;64.70
1956;DHT22;978;48.314;11.562;2023-04-15T07:13:21;20.50;64.70
1956;DHT22;978;48.314;11.562;2023-04-15T07:15:50;20.50;64.70
1956;DHT22;978;48.314;11.562;2023-04-15T07:18:18;20.50;64.80
1956;DHT22;978;48.314;11.562;2023-04-15T07:20:45;20.50;64.90
1956;DHT22;978;48.314;11.562;2023-04-15T07:23:12;20.50;65.00
1956;DHT22;978;48.314;11.562;2023-04-15T07:25:39;20.50;65.10
1956;DHT22;978;48.314;11.562;2023-04-15T07:28:05;20.50;65.10
1956;DHT22;978;48.314;11.562;2023-04-15T07:30:33;20.50;65.20
1956;DHT22;978;48.314;11.562;2023-04-15T07:33:00;20.50;65.20
1956;DHT22;978;48.314;11.562;2023-04-15T07:35:29;20.50;65.30
1956;DHT22;978;48.314;11.562;2023-04-15T07:37:55;20.50;65.30
1956;DHT22;978;48.314;11.562;2023-04-15T07:40:23;20.50;65.40
1956;DHT22;978;48.314;11.562;2023-04-15T07:42:51;20.50;65.40
1956;DHT22;978;48.314;11.562;2023-04-15T07:45:17;20.50;65.40
1956;DHT22;978;48.314;11.562;2023-04-15T07:47:49;20.50;65.40
1956;DHT22;978;48.314;11.562;2023-04-15T07:50:18;20.50;65.50
1956;DHT22;978;48.314;11.562;2023-04-15T07:52:45;20.50;65.50
1956;DHT22;978;48.314;11.562;2023-04-15T07:55:11;20.50;65.50
1956;DHT22;978;48.314;11.562;2023-04-15T07:57:38;20.50;65.60
1956;DHT22;978;48.314;11.562;2023-04-15T08:00:07;20.50;65.60
1956;DHT22;978;48.314;11.562;2023-04-15T08:02:35;20.50;65.60
1956;DHT22;978;48.314;11.562;2023-04-15T08:05:09;20.50;65.60
1956;DHT22;978;48.314;11.562;2023-04-15T08:07:36;20.50;65.70
1956;DHT22;978;48.314;11.562;2023-04-15T08:10:06;20.50;65.60
1956;DHT22;978;48.314;11.562;2023-04-15T08:12:33;20.50;65.70
1956;DHT22;978;48.314;11.562;2023-04-15T08:15:00;20.50;65.70
1956;DHT22;978;48.314;11.562;2023-04-15T08:17:27;20.50;65.70
1956;DHT22;978;48.314;11.562;2023-04-15T08:19:57;20.50;65.70
1956;DHT22;978;48.314;11.562;2023-04-15T08:22:27;20.50;65.70
1956;DHT22;978;48.314;11.562;2023-04-15T08:24:55;20.50;65.70
1956;DHT22;978;48.314;11.562;2023-04-15T08:27:22;20.50;65.80
1956;DHT22;978;48.314;11.562;2023-04-15T08:29:50;20.50;65.70
1956;DHT22;978;48.314;11.562;2023-04-15T08:32:18;20.50;65.80
1956;DHT22;978;48.314;11.562;2023-04-15T08:34:44;20.50;65.80
1956;DHT22;978;48.314;11.562;2023-04-15T08:37:11;20.50;65.80
1956;DHT22;978;48.314;11.562;2023-04-15T08:39:40;20.50;66.40
1956;DHT22;978;48.314;11.562;2023-04-15T08:42:11;20.50;65.90
1956;DHT22;978;48.314;11.562;2023-04-15T08:44:42;20.50;65.90
1956;DHT22;978;48.314;11.562;2023-04-15T08:47:12;20.50;65.90
1956;DHT22;978;48.314;11.562;2023-04-15T08:49:40;20.50;65.90
1956;DHT22;978;48.314;11.562;2023-04-15T08:52:08;20.50;65.90
1956;DHT22;978;48.314;11.562;2023-04-15T08:54:35;20.50;65.90
1956;DHT22;978;48.314;11.562;2023-04-15T08:57:05;20.50;65.90
1956;DHT22;978;48.314;11.562;2023-04-15T08:59:32;20.50;65.90
1956;DHT22;978;48.314;11.562;2023-04-15T09:02:02;20.50;66.00
1956;DHT22;978;48.314;11.562;2023-04-15T09:04:30;20.50;66.00
1956;DHT22;978;48.314;11.562;2023-04-15T09:06:59;20.50;66.00
1956;DHT22;978;48.314;11.562;2023-04-15T09:09:28;20.50;66.00
1956;DHT22;978;48.314;11.562;2023-04-15T09:11:55;20.60;66.10
1956;DHT22;978;48.314;11.562;2023-04-15T09:14:24;20.50;66.10
1956;DHT22;978;48.314;11.562;2023-04-15T09:16:58;20.50;66.10
1956;DHT22;978;48.314;11.562;2023-04-15T09:19:25;20.50;66.10
1956;DHT22;978;48.314;11.562;2023-04-15T09:21:54;20.50;66.10
1956;DHT22;978;48.314;11.562;2023-04-15T09:24:24;20.50;66.10
1956;DHT22;978;48.314;11.562;2023-04-15T09:26:52;20.50;66.20
1956;DHT22;978;48.314;11.562;2023-04-15T09:29:19;20.50;66.20
1956;DHT22;978;48.314;11.562;2023-04-15T09:31:53;20.50;66.20
1956;DHT22;978;48.314;11.562;2023-04-15T09:34:20;20.60;66.20
1956;DHT22;978;48.314;11.562;2023-04-15T09:36:52;20.50;66.20
1956;DHT22;978;48.314;11.562;2023-04-15T09:39:19;20.50;66.20
1956;DHT22;978;48.314;11.562;2023-04-15T09:41:46;20.50;66.20
1956;DHT22;978;48.314;11.562;2023-04-15T09:44:22;20.50;66.20
1956;DHT22;978;48.314;11.562;2023-04-15T09:46:53;20.50;66.20
1956;DHT22;978;48.314;11.562;2023-04-15T09:49:20;20.50;66.20
1956;DHT22;978;48.314;11.562;2023-04-15T09:51:48;20.50;66.20
1956;DHT22;978;48.314;11.562;2023-04-15T09:54:18;20.50;66.20
1956;DHT22;978;48.314;11.562;2023-04-15T09:56:46;20.50;66.20
1956;DHT22;978;48.314;11.562;2023-04-15T09:59:13;20.50;66.20
1956;DHT22;978;48.314;11.562;2023-04-15T10:01:42;20.50;66.90
1956;DHT22;978;48.314;11.562;2023-04-15T10:04:10;20.60;66.40
1956;DHT22;978;48.314;11.562;2023-04-15T10:06:38;20.50;66.50
1956;DHT22;978;48.314;11.562;2023-04-15T10:09:06;20.50;66.30
1956;DHT22;978;48.314;11.562;2023-04-15T10:11:34;20.60;66.30
1956;DHT22;978;48.314;11.562;2023-04-15T10:14:01;20.60;66.30
1956;DHT22;978;48.314;11.562;2023-04-15T10:16:29;20.50;66.20
1956;DHT22;978;48.314;11.562;2023-04-15T10:19:00;20.60;66.30
1956;DHT22;978;48.314;11.562;2023-04-15T10:21:30;20.60;66.30
1956;DHT22;978;48.314;11.562;2023-04-15T10:23:58;20.60;66.30
1956;DHT22;978;48.314;11.562;2023-04-15T10:26:27;20.60;66.30
1956;DHT22;978;48.314;11.562;2023-04-15T10:28:56;20.60;66.30
1956;DHT22;978;48.314;11.562;2023-04-15T10:31:23;20.60;66.30
1956;DHT22;978;48.314;11.562;2023-04-15T10:33:51;20.60;66.30
1956;DHT22;978;48.314;11.562;2023-04-15T10:36:19;20.60;66.30
1956;DHT22;978;48.314;11.562;2023-04-15T10:38:50;20.60;66.30
1956;DHT22;978;48.314;11.562;2023-04-15T10:41:19;20.60;66.30
1956;DHT22;978;48.314;11.562;2023-04-15T10:43:48;20.60;66.30
1956;DHT22;978;48.314;11.562;2023-04-15T10:46:20;20.60;66.30
1956;DHT22;978;48.314;11.562;2023-04-15T10:48:49;20.60;66.30
1956;DHT22;978;48.314;11.562;2023-04-15T10:51:26;20.50;66.20
1956;DHT22;978;48.314;11.562;2023-04-15T10:53:58;20.60;66.30
1956;DHT22;978;48.314;11.562;2023-04-15T10:56:27;20.50;66.20
1956;DHT22;978;48.314;11.562;2023-04-15T10:58:58;20.50;66.20
1956;DHT22;978;48.314;11.562;2023-04-15T11:01:55;20.50;66.20
1956;DHT22;978;48.314;11.562;2023-04-15T11:04:55;20.50;66.20
1956;DHT22;978;48.314;11.562;2023-04-15T11:07:48;20.60;66.20
1956;DHT22;978;48.314;11.562;2023-04-15T11:13:31;20.50;66.20
1956;DHT22;978;48.314;11.562;2023-04-15T11:15:59;20.60;66.20
1956;DHT22;978;48.314;11.562;2023-04-15T11:18:28;20.60;66.30
1956;DHT22;978;48.314;11.562;2023-04-15T11:20:57;20.50;66.20
1956;DHT22;978;48.314;11.562;2023-04-15T11:23:28;20.60;66.20
1956;DHT22;978;48.314;11.562;2023-04-15T11:25:56;20.60;66.20
1956;DHT22;978;48.314;11.562;2023-04-15T11:28:26;20.60;66.20
1956;DHT22;978;48.314;11.562;2023-04-15T11:30:58;20.50;66.20
1956;DHT22;978;48.314;11.562;2023-04-15T11:33:26;20.60;66.20
1956;DHT22;978;48.314;11.562;2023-04-15T11:35:53;20.50;66.20
1956;DHT22;978;48.314;11.562;2023-04-15T11:38:24;20.50;66.20
1956;DHT22;978;48.314;11.562;2023-04-15T11:40:53;20.50;66.20
1956;DHT22;978;48.314;11.562;2023-04-15T11:43:22;20.60;66.20
1956;DHT22;978;48.314;11.562;2023-04-15T11:45:51;20.60;66.20
1956;DHT22;978;48.314;11.562;2023-04-15T11:48:21;20.60;66.20
1956;DHT22;978;48.314;11.562;2023-04-15T11:50:56;20.60;66.20
1956;DHT22;978;48.314;11.562;2023-04-15T11:53:36;20.50;66.80
1956;DHT22;978;48.314;11.562;2023-04-15T11:56:04;20.60;66.20
1956;DHT22;978;48.314;11.562;2023-04-15T11:58:34;20.60;66.20
1956;DHT22;978;48.314;11.562;2023-04-15T12:01:01;20.60;66.10
1956;DHT22;978;48.314;11.562;2023-04-15T12:03:38;20.60;66.00
1956;DHT22;978;48.314;11.562;2023-04-15T12:06:07;20.60;66.00
1956;DHT22;978;48.314;11.562;2023-04-15T12:11:56;20.60;65.80
1956;DHT22;978;48.314;11.562;2023-04-15T12:14:25;20.60;65.70
1956;DHT22;978;48.314;11.562;2023-04-15T12:16:56;20.60;65.60
1956;DHT22;978;48.314;11.562;2023-04-15T12:19:26;20.50;65.50
1956;DHT22;978;48.314;11.562;2023-04-15T12:21:58;20.60;65.50
1956;DHT22;978;48.314;11.562;2023-04-15T12:24:25;20.60;65.40
1956;DHT22;978;48.314;11.562;2023-04-15T12:26:55;20.60;65.30
1956;DHT22;978;48.314;11.562;2023-04-15T12:29:30;20.60;65.30
1956;DHT22;978;48.314;11.562;2023-04-15T12:32:03;20.60;65.20
1956;DHT22;978;48.314;11.562;2023-04-15T12:34:35;20.60;65.20
1956;DHT22;978;48.314;11.562;2023-04-15T12:37:06;20.50;65.10
1956;DHT22;978;48.314;11.562;2023-04-15T12:39:36;20.50;65.00
1956;DHT22;978;48.314;11.562;2023-04-15T12:42:06;20.60;65.00
1956;DHT22;978;48.314;11.562;2023-04-15T12:44:34;20.50;64.90
1956;DHT22;978;48.314;11.562;2023-04-15T12:47:01;20.50;64.90
1956;DHT22;978;48.314;11.562;2023-04-15T12:49:28;20.50;64.80
1956;DHT22;978;48.314;11.562;2023-04-15T12:51:57;20.60;64.90
1956;DHT22;978;48.314;11.562;2023-04-15T12:54:25;20.50;64.80
1956;DHT22;978;48.314;11.562;2023-04-15T12:56:54;20.50;64.70
1956;DHT22;978;48.314;11.562;2023-04-15T12:59:23;20.50;64.70
1956;DHT22;978;48.314;11.562;2023-04-15T13:01:50;20.60;64.70
1956;DHT22;978;48.314;11.562;2023-04-15T13:04:19;20.50;64.60
1956;DHT22;978;48.314;11.562;2023-04-15T13:06:46;20.50;64.60
1956;DHT22;978;48.314;11.562;2023-04-15T13:09:16;20.60;64.60
1956;DHT22;978;48.314;11.562;2023-04-15T13:11:46;20.50;64.60
1956;DHT22;978;48.314;11.562;2023-04-15T13:14:16;20.60;64.60
1956;DHT22;978;48.314;11.562;2023-04-15T13:16:42;20.50;64.50
1956;DHT22;978;48.314;11.562;2023-04-15T13:19:10;20.60;64.60
1956;DHT22;978;48.314;11.562;2023-04-15T13:21:38;20.60;65.20
1956;DHT22;978;48.314;11.562;2023-04-15T13:24:06;20.50;64.80
1956;DHT22;978;48.314;11.562;2023-04-15T13:26:35;20.60;64.90
1956;DHT22;978;48.314;11.562;2023-04-15T13:29:02;20.50;64.50
1956;DHT22;978;48.314;11.562;2023-04-15T13:31:31;20.50;64.50
1956;DHT22;978;48.314;11.562;2023-04-15T13:33:57;20.50;64.50
1956;DHT22;978;48.314;11.562;2023-04-15T13:36:24;20.50;64.50
1956;DHT22;978;48.314;11.562;2023-04-15T13:38:53;20.50;64.50
1956;DHT22;978;48.314;11.562;2023-04-15T13:41:22;20.50;64.50
1956;DHT22;978;48.314;11.562;2023-04-15T13:43:52;20.50;65.10
1956;DHT22;978;48.314;11.562;2023-04-15T13:46:23;20.50;64.50
1956;DHT22;978;48.314;11.562;2023-04-15T13:48:52;20.50;64.50
1956;DHT22;978;48.314;11.562;2023-04-15T13:51:19;20.50;64.50
1956;DHT22;978;48.314;11.562;2023-04-15T13:53:45;20.50;64.50
1956;DHT22;978;48.314;11.562;2023-04-15T13:56:12;20.50;64.50
1956;DHT22;978;48.314;11.562;2023-04-15T13:58:40;20.50;64.50
1956;DHT22;978;48.314;11.562;2023-04-15T14:01:08;20.50;64.50
1956;DHT22;978;48.314;11.562;2023-04-15T14:03:36;20.50;64.60
1956;DHT22;978;48.314;11.562;2023-04-15T14:06:04;20.50;64.50
1956;DHT22;978;48.314;11.562;2023-04-15T14:08:32;20.50;64.50
1956;DHT22;978;48.314;11.562;2023-04-15T14:10:59;20.60;64.60
1956;DHT22;978;48.314;11.562;2023-04-15T14:13:26;20.50;64.60
1956;DHT22;978;48.314;11.562;2023-04-15T14:15:53;20.50;64.50
1956;DHT22;978;48.314;11.562;2023-04-15T14:18:21;20.60;64.60
1956;DHT22;978;48.314;11.562;2023-04-15T14:20:51;20.50;64.50
1956;DHT22;978;48.314;11.562;2023-04-15T14:23:19;20.60;64.60
1956;DHT22;978;48.314;11.562;2023-04-15T14:25:48;20.50;64.50
1956;DHT22;978;48.314;11.562;2023-04-15T14:28:15;20.50;64.50
1956;DHT22;978;48.314;11.562;2023-04-15T14:30:42;20.50;64.50
1956;DHT22;978;48.314;11.562;2023-04-15T14:33:12;20.50;64.50
1956;DHT22;978;48.314;11.562;2023-04-15T14:35:40;20.50;64.50
1956;DHT22;978;48.314;11.562;2023-04-15T14:38:07;20.50;64.50
1956;DHT22;978;48.314;11.562;2023-04-15T14:40:39;20.50;64.50
1956;DHT22;978;48.314;11.562;2023-04-15T14:43:06;20.50;64.50
1956;DHT22;978;48.314;11.562;2023-04-15T14:45:34;20.50;64.50
1956;DHT22;978;48.314;11.562;2023-04-15T14:48:01;20.50;64.50
1956;DHT22;978;48.314;11.562;2023-04-15T14:50:29;20.50;64.50
1956;DHT22;978;48.314;11.562;2023-04-15T14:52:59;20.50;64.40
1956;DHT22;978;48.314;11.562;2023-04-15T14:55:25;20.50;64.40
1956;DHT22;978;48.314;11.562;2023-04-15T14:57:52;20.50;64.40
1956;DHT22;978;48.314;11.562;2023-04-15T15:00:19;20.50;64.40
1956;DHT22;978;48.314;11.562;2023-04-15T15:02:48;20.50;64.40
1956;DHT22;978;48.314;11.562;2023-04-15T15:05:15;20.50;64.40
1956;DHT22;978;48.314;11.562;2023-04-15T15:07:45;20.60;64.50
1956;DHT22;978;48.314;11.562;2023-04-15T15:10:15;20.50;64.40
1956;DHT22;978;48.314;11.562;2023-04-15T15:12:42;20.50;64.40
1956;DHT22;978;48.314;11.562;2023-04-15T15:15:09;20.60;64.40
1956;DHT22;978;48.314;11.562;2023-04-15T15:17:36;20.50;64.40
1956;DHT22;978;48.314;11.562;2023-04-15T15:20:05;20.60;64.40
1956;DHT22;978;48.314;11.562;2023-04-15T15:22:34;20.50;64.30
1956;DHT22;978;48.314;11.562;2023-04-15T15:25:01;20.50;64.30
1956;DHT22;978;48.314;11.562;2023-04-15T15:27:30;20.50;64.30
1956;DHT22;978;48.314;11.562;2023-04-15T15:29:57;20.50;64.30
1956;DHT22;978;48.314;11.562;2023-04-15T15:32:27;20.50;64.30
1956;DHT22;978;48.314;11.562;2023-04-15T15:34:56;20.50;64.30
1956;DHT22;978;48.314;11.562;2023-04-15T15:37:24;20.60;64.30
1956;DHT22;978;48.314;11.562;2023-04-15T15:39:51;20.50;64.30
1956;DHT22;978;48.314;11.562;2023-04-15T15:42:20;20.50;64.30
1956;DHT22;978;48.314;11.562;2023-04-15T15:44:51;20.50;64.30
1956;DHT22;978;48.314;11.562;2023-04-15T15:47:20;20.50;64.30
1956;DHT22;978;48.314;11.562;2023-04-15T15:49:48;20.50;64.30
1956;DHT22;978;48.314;11.562;2023-04-15T15:52:15;20.50;64.80
1956;DHT22;978;48.314;11.562;2023-04-15T15:54:42;20.50;64.20
1956;DHT22;978;48.314;11.562;2023-04-15T15:57:09;20.50;64.30
1956;DHT22;978;48.314;11.562;2023-04-15T15:59:35;20.60;64.30
1956;DHT22;978;48.314;11.562;2023-04-15T16:02:08;20.50;64.20
1956;DHT22;978;48.314;11.562;2023-04-15T16:04:35;20.50;64.30
1956;DHT22;978;48.314;11.562;2023-04-15T16:07:02;20.50;64.20
1956;DHT22;978;48.314;11.562;2023-04-15T16:09:29;20.50;64.20
1956;DHT22;978;48.314;11.562;2023-04-15T16:11:59;20.50;64.20
1956;DHT22;978;48.314;11.562;2023-04-15T16:14:28;20.50;64.20
1956;DHT22;978;48.314;11.562;2023-04-15T16:16:57;20.50;64.20